createdAt,value
2022-10-31T00:00:45.094Z,0.53
2022-10-31T00:03:19.352Z,0.56
2022-10-31T00:05:53.325Z,0.54
2022-10-31T00:08:26.587Z,0.54
2022-10-31T00:10:59.897Z,0.54
2022-10-31T00:13:33.737Z,0.52
2022-10-31T00:16:07.953Z,0.54
2022-10-31T00:18:41.486Z,0.51
2022-10-31T00:21:14.719Z,0.51
2022-10-31T00:23:48.420Z,0.49
2022-10-31T00:26:21.845Z,0.54
2022-10-31T00:28:55.319Z,0.54
2022-10-31T00:31:28.925Z,0.51
2022-10-31T00:34:04.037Z,0.54
2022-10-31T00:36:37.349Z,0.55
2022-10-31T00:39:11.057Z,0.54
2022-10-31T00:41:44.399Z,0.60
2022-10-31T00:44:18.504Z,0.57
2022-10-31T00:46:52.604Z,0.51
2022-10-31T00:49:27.738Z,0.57
2022-10-31T00:52:02.059Z,0.61
2022-10-31T00:54:35.425Z,0.62
2022-10-31T00:57:08.786Z,0.63
2022-10-31T00:59:42.027Z,0.61
2022-10-31T01:02:15.423Z,0.62
2022-10-31T01:04:48.964Z,0.54
2022-10-31T01:07:22.000Z,0.48
2022-10-31T01:09:55.519Z,0.49
2022-10-31T01:12:29.064Z,0.44
2022-10-31T01:15:03.891Z,0.30
2022-10-31T01:17:37.346Z,0.25
2022-10-31T01:20:14.143Z,0.22
2022-10-31T01:22:47.658Z,0.12
2022-10-31T01:25:21.505Z,0.04
2022-10-31T01:27:55.352Z,0.03
2022-10-31T01:30:28.604Z,-0.03
2022-10-31T01:33:02.410Z,-0.12
2022-10-31T01:35:35.842Z,-0.21
2022-10-31T01:38:09.269Z,-0.27
2022-10-31T01:40:42.790Z,-0.36
2022-10-31T01:43:16.946Z,-0.39
2022-10-31T01:45:56.463Z,-0.49
2022-10-31T01:48:32.673Z,-0.52
2022-10-31T01:51:07.097Z,-0.56
2022-10-31T01:53:42.598Z,-0.57
2022-10-31T01:56:18.308Z,-0.54
2022-10-31T01:58:54.204Z,-0.57
2022-10-31T02:01:27.626Z,-0.56
2022-10-31T02:04:01.430Z,-0.66
2022-10-31T02:06:39.978Z,-0.66
2022-10-31T02:09:14.957Z,-0.64
2022-10-31T02:11:49.155Z,-0.70
2022-10-31T02:14:26.512Z,-0.70
2022-10-31T02:17:00.969Z,-0.72
2022-10-31T02:19:37.663Z,-0.73
2022-10-31T02:22:16.598Z,-0.74
2022-10-31T02:24:59.517Z,-0.71
2022-10-31T02:28:02.922Z,-0.75
2022-10-31T02:30:41.571Z,-0.78
2022-10-31T02:33:24.462Z,-0.82
2022-10-31T02:36:04.649Z,-0.82
2022-10-31T02:38:44.193Z,-0.82
2022-10-31T02:41:23.500Z,-0.87
2022-10-31T02:44:03.090Z,-0.89
2022-10-31T02:46:41.399Z,-0.88
2022-10-31T02:49:19.573Z,-0.89
2022-10-31T02:51:53.892Z,-0.89
2022-10-31T02:54:28.971Z,-0.88
2022-10-31T02:57:06.964Z,-0.84
2022-10-31T02:59:43.049Z,-0.81
2022-10-31T03:02:30.389Z,-0.80
2022-10-31T03:05:19.470Z,-0.86
2022-10-31T03:07:58.600Z,-0.89
2022-10-31T03:10:36.540Z,-0.89
2022-10-31T03:13:13.828Z,-0.87
2022-10-31T03:15:50.256Z,-0.85
2022-10-31T03:18:28.790Z,-0.82
2022-10-31T03:21:05.093Z,-0.79
2022-10-31T03:23:40.134Z,-0.81
2022-10-31T03:26:16.429Z,-0.80
2022-10-31T03:28:54.148Z,-0.74
2022-10-31T03:31:27.505Z,-0.74
2022-10-31T03:34:03.424Z,-0.74
2022-10-31T03:36:39.810Z,-0.73
2022-10-31T03:39:16.533Z,-0.72
2022-10-31T03:44:35.060Z,-0.57
2022-10-31T03:47:09.198Z,-0.69
2022-10-31T03:49:43.071Z,-0.72
2022-10-31T03:52:22.473Z,-0.67
2022-10-31T03:55:00.223Z,-0.67
2022-10-31T03:57:38.134Z,-0.71
2022-10-31T04:00:15.642Z,-0.74
2022-10-31T04:02:54.240Z,-0.70
2022-10-31T04:05:28.893Z,-0.72
2022-10-31T04:08:06.523Z,-0.72
2022-10-31T04:10:41.189Z,-0.71
2022-10-31T04:15:54.952Z,-0.73
2022-10-31T04:18:29.101Z,-0.75
2022-10-31T04:21:07.550Z,-0.72
2022-10-31T04:23:40.926Z,-0.75
2022-10-31T04:26:15.970Z,-0.75
2022-10-31T04:28:50.299Z,-0.74
2022-10-31T04:31:23.676Z,-0.71
2022-10-31T04:33:57.084Z,-0.64
2022-10-31T04:36:30.152Z,-0.69
2022-10-31T04:39:04.268Z,-0.70
2022-10-31T04:41:44.906Z,-0.72
2022-10-31T04:44:21.661Z,-0.70
2022-10-31T04:46:56.715Z,-0.73
2022-10-31T04:49:30.090Z,-0.69
2022-10-31T04:52:03.573Z,-0.68
2022-10-31T04:54:37.033Z,-0.63
2022-10-31T04:57:15.092Z,-0.62
2022-10-31T04:59:50.251Z,-0.64
2022-10-31T05:02:23.701Z,-0.60
2022-10-31T05:04:58.573Z,-0.58
2022-10-31T05:07:31.916Z,-0.58
2022-10-31T05:10:05.780Z,-0.58
2022-10-31T05:12:39.784Z,-0.52
2022-10-31T05:15:14.582Z,-0.53
2022-10-31T05:18:05.976Z,-0.52
2022-10-31T05:20:57.074Z,-0.53
2022-10-31T05:23:31.962Z,-0.54
2022-10-31T05:26:06.023Z,-0.44
2022-10-31T05:28:39.688Z,-0.37
2022-10-31T05:31:12.916Z,-0.36
2022-10-31T05:33:48.002Z,-0.34
2022-10-31T05:36:39.297Z,-0.33
2022-10-31T05:39:17.338Z,-0.30
2022-10-31T05:41:52.022Z,-0.28
2022-10-31T05:44:26.800Z,-0.24
2022-10-31T05:49:50.938Z,-0.06
2022-10-31T05:55:20.886Z,0.02
2022-10-31T05:57:58.094Z,-0.02
2022-10-31T06:00:31.840Z,0.06
2022-10-31T06:05:50.756Z,0.19
2022-10-31T06:08:23.187Z,0.25
2022-10-31T06:10:58.317Z,0.31
2022-10-31T06:13:49.457Z,0.43
2022-10-31T06:16:24.741Z,0.46
2022-10-31T06:18:58.218Z,0.55
2022-10-31T06:21:32.304Z,0.62
2022-10-31T06:24:06.170Z,0.67
2022-10-31T06:26:44.093Z,0.75
2022-10-31T06:29:17.507Z,0.76
2022-10-31T06:31:56.048Z,0.82
2022-10-31T06:34:29.133Z,0.89
2022-10-31T06:37:03.161Z,0.96
2022-10-31T06:39:37.218Z,1.03
2022-10-31T06:42:10.933Z,1.06
2022-10-31T06:44:44.310Z,1.13
2022-10-31T06:47:45.679Z,1.20
2022-10-31T06:50:12.789Z,1.29
2022-10-31T06:52:47.689Z,1.38
2022-10-31T06:55:22.015Z,1.41
2022-10-31T06:57:58.890Z,1.42
2022-10-31T07:00:32.637Z,1.55
2022-10-31T07:03:10.080Z,1.71
2022-10-31T07:05:44.238Z,1.82
2022-10-31T07:08:17.866Z,1.83
2022-10-31T07:10:55.023Z,1.87
2022-10-31T07:13:28.748Z,1.88
2022-10-31T07:16:05.753Z,1.90
2022-10-31T07:18:40.390Z,1.94
2022-10-31T07:21:14.344Z,1.97
2022-10-31T07:23:49.330Z,2.01
2022-10-31T07:26:40.673Z,2.06
2022-10-31T07:29:13.917Z,2.10
2022-10-31T07:31:48.982Z,2.09
2022-10-31T07:34:23.946Z,2.11
2022-10-31T07:37:04.988Z,2.14
2022-10-31T07:39:38.570Z,2.15
2022-10-31T07:42:12.854Z,2.18
2022-10-31T07:44:47.882Z,2.25
2022-10-31T07:47:43.214Z,2.25
2022-10-31T07:50:35.827Z,2.41
2022-10-31T07:53:27.347Z,2.51
2022-10-31T07:56:02.466Z,2.84
2022-10-31T07:58:35.748Z,3.18
2022-10-31T08:01:10.129Z,3.48
2022-10-31T08:03:45.321Z,3.54
2022-10-31T08:06:26.099Z,3.53
2022-10-31T08:09:17.610Z,3.51
2022-10-31T08:11:51.243Z,3.49
2022-10-31T08:14:24.700Z,3.49
2022-10-31T08:16:58.491Z,3.46
2022-10-31T08:19:33.572Z,3.46
2022-10-31T08:22:07.510Z,3.39
2022-10-31T08:24:41.734Z,3.44
2022-10-31T08:27:15.498Z,3.43
2022-10-31T08:29:50.055Z,3.40
2022-10-31T08:32:24.781Z,3.37
2022-10-31T08:35:15.826Z,3.39
2022-10-31T08:38:08.780Z,3.49
2022-10-31T08:40:43.110Z,3.39
2022-10-31T08:43:17.215Z,3.40
2022-10-31T08:45:54.254Z,3.49
2022-10-31T08:48:30.661Z,3.60
2022-10-31T08:51:04.266Z,3.69
2022-10-31T08:53:38.273Z,3.71
2022-10-31T08:56:16.367Z,3.68
2022-10-31T08:58:50.235Z,3.52
2022-10-31T09:01:24.930Z,3.47
2022-10-31T09:03:58.754Z,3.45
2022-10-31T09:06:31.965Z,3.47
2022-10-31T09:09:05.681Z,3.59
2022-10-31T09:11:39.292Z,3.87
2022-10-31T09:14:17.117Z,3.85
2022-10-31T09:17:00.928Z,3.90
2022-10-31T09:19:37.016Z,3.90
2022-10-31T09:22:11.759Z,3.88
2022-10-31T09:24:45.428Z,4.01
2022-10-31T09:27:18.809Z,4.34
2022-10-31T09:29:53.819Z,4.70
2022-10-31T09:32:27.072Z,5.56
2022-10-31T09:35:00.597Z,7.89
2022-10-31T09:37:34.238Z,9.17
2022-10-31T09:40:08.858Z,9.89
2022-10-31T09:43:00.930Z,9.51
2022-10-31T09:45:37.413Z,8.50
2022-10-31T09:48:40.791Z,7.34
2022-10-31T09:51:24.764Z,6.55
2022-10-31T09:54:05.201Z,6.03
2022-10-31T09:56:39.689Z,6.23
2022-10-31T09:59:18.036Z,5.97
2022-10-31T10:01:54.189Z,5.96
2022-10-31T10:04:39.424Z,6.72
2022-10-31T10:10:04.827Z,6.93
2022-10-31T10:12:46.596Z,6.43
2022-10-31T10:15:32.520Z,5.94
2022-10-31T10:18:10.052Z,5.37
2022-10-31T10:20:46.274Z,5.13
2022-10-31T10:23:33.771Z,5.21
2022-10-31T10:26:11.456Z,5.53
2022-10-31T10:28:45.002Z,5.92
2022-10-31T10:31:20.186Z,6.05
2022-10-31T10:34:00.944Z,5.93
2022-10-31T10:36:38.723Z,5.89
2022-10-31T10:39:16.146Z,5.74
2022-10-31T10:42:10.703Z,5.66
2022-10-31T10:45:04.173Z,5.58
2022-10-31T10:47:39.784Z,5.32
2022-10-31T10:50:17.581Z,5.16
2022-10-31T10:52:51.934Z,4.86
2022-10-31T10:55:32.422Z,4.65
2022-10-31T10:58:08.165Z,4.35
2022-10-31T11:00:43.484Z,4.21
2022-10-31T11:03:17.893Z,4.07
2022-10-31T11:05:53.729Z,3.94
2022-10-31T11:08:31.667Z,3.87
2022-10-31T11:11:08.513Z,3.75
2022-10-31T11:13:44.387Z,3.72
2022-10-31T11:16:20.211Z,3.75
2022-10-31T11:18:54.024Z,3.66
2022-10-31T11:21:29.950Z,3.52
2022-10-31T11:24:18.803Z,3.44
2022-10-31T11:26:53.361Z,3.34
2022-10-31T11:29:28.035Z,3.27
2022-10-31T11:32:02.813Z,3.16
2022-10-31T11:34:39.018Z,3.02
2022-10-31T11:37:16.071Z,3.04
2022-10-31T11:39:53.877Z,2.94
2022-10-31T11:42:27.222Z,2.87
2022-10-31T11:45:00.799Z,2.82
2022-10-31T11:47:34.849Z,2.70
2022-10-31T11:50:13.673Z,2.66
2022-10-31T11:52:47.165Z,2.68
2022-10-31T11:55:32.345Z,2.65
2022-10-31T11:58:06.079Z,2.64
2022-10-31T12:00:42.835Z,2.67
2022-10-31T12:03:18.848Z,2.72
2022-10-31T12:05:55.021Z,2.62
2022-10-31T12:08:31.450Z,2.63
2022-10-31T12:11:08.603Z,2.59
2022-10-31T12:13:45.228Z,2.60
2022-10-31T12:16:21.611Z,2.56
2022-10-31T12:19:03.330Z,2.51
2022-10-31T12:21:47.910Z,2.54
2022-10-31T12:24:31.650Z,2.48
2022-10-31T12:27:11.958Z,2.43
2022-10-31T12:29:53.277Z,2.43
2022-10-31T12:32:33.505Z,2.50
2022-10-31T12:35:31.071Z,2.49
2022-10-31T12:38:07.674Z,2.44
2022-10-31T12:41:08.189Z,2.49
2022-10-31T12:43:45.133Z,2.49
2022-10-31T12:49:30.777Z,2.56
2022-10-31T12:52:11.326Z,2.49
2022-10-31T12:54:53.540Z,2.48
2022-10-31T12:57:31.661Z,2.44
2022-10-31T13:00:08.355Z,2.49
2022-10-31T13:05:28.623Z,2.53
2022-10-31T13:08:04.899Z,2.44
2022-10-31T13:10:42.446Z,2.46
2022-10-31T13:13:18.694Z,2.46
2022-10-31T13:15:55.148Z,2.45
2022-10-31T13:18:31.890Z,2.48
2022-10-31T13:21:08.579Z,2.51
2022-10-31T13:23:51.028Z,2.54
2022-10-31T13:26:23.500Z,2.60
2022-10-31T13:28:57.373Z,2.58
2022-10-31T13:31:30.904Z,2.61
2022-10-31T13:34:07.564Z,2.61
2022-10-31T13:36:43.912Z,2.63
2022-10-31T13:39:23.520Z,2.57
2022-10-31T13:42:00.815Z,2.59
2022-10-31T13:44:38.500Z,2.56
2022-10-31T13:47:24.091Z,2.59
2022-10-31T13:50:10.484Z,2.70
2022-10-31T13:52:45.011Z,2.71
2022-10-31T13:55:41.701Z,2.68
2022-10-31T13:58:27.808Z,2.61
2022-10-31T14:01:15.930Z,2.62
2022-10-31T14:04:23.954Z,2.59
2022-10-31T14:06:38.677Z,2.53
2022-10-31T14:09:24.376Z,2.49
2022-10-31T14:12:00.386Z,2.51
2022-10-31T14:14:38.327Z,2.52
2022-10-31T14:17:17.034Z,2.50
2022-10-31T14:20:05.446Z,2.56
2022-10-31T14:22:43.058Z,2.52
2022-10-31T14:25:34.589Z,2.48
2022-10-31T14:28:23.248Z,2.54
2022-10-31T14:30:58.657Z,2.48
2022-10-31T14:33:36.057Z,2.39
2022-10-31T14:38:57.797Z,2.55
2022-10-31T14:41:42.414Z,2.46
2022-10-31T14:44:28.412Z,2.45
2022-10-31T14:47:04.770Z,2.51
2022-10-31T14:49:46.013Z,2.42
2022-10-31T14:52:22.272Z,2.42
2022-10-31T14:54:59.939Z,2.50
2022-10-31T14:57:37.488Z,2.38
2022-10-31T15:00:17.539Z,2.35
2022-10-31T15:02:56.265Z,2.35
2022-10-31T15:05:31.429Z,2.38
2022-10-31T15:08:04.900Z,2.38
2022-10-31T15:10:41.126Z,2.35
2022-10-31T15:13:19.484Z,2.35
2022-10-31T15:15:56.708Z,2.34
2022-10-31T15:18:31.169Z,2.40
2022-10-31T15:21:09.896Z,2.32
2022-10-31T15:23:44.922Z,2.26
2022-10-31T15:26:21.026Z,2.28
2022-10-31T15:29:18.638Z,2.22
2022-10-31T15:31:57.986Z,2.11
2022-10-31T15:34:35.211Z,2.09
2022-10-31T15:37:13.473Z,2.09
2022-10-31T15:39:48.536Z,2.10
2022-10-31T15:42:25.742Z,2.10
2022-10-31T15:45:01.857Z,2.09
2022-10-31T15:47:36.475Z,2.08
2022-10-31T15:50:21.296Z,2.09
2022-10-31T15:52:55.051Z,2.14
2022-10-31T15:55:30.940Z,2.15
2022-10-31T15:58:07.053Z,2.14
2022-10-31T16:00:42.267Z,2.16
2022-10-31T16:03:27.932Z,2.19
2022-10-31T16:06:04.770Z,2.15
2022-10-31T16:08:39.404Z,2.20
2022-10-31T16:11:24.221Z,2.21
2022-10-31T16:14:00.828Z,2.20
2022-10-31T16:16:36.717Z,2.18
2022-10-31T16:19:16.195Z,2.19
2022-10-31T16:21:51.216Z,2.20
2022-10-31T16:24:27.424Z,2.18
2022-10-31T16:27:03.947Z,2.20
2022-10-31T16:29:40.803Z,2.21
2022-10-31T16:32:30.547Z,2.18
2022-10-31T16:35:19.937Z,2.19
2022-10-31T16:37:53.626Z,2.20
2022-10-31T16:40:27.329Z,2.19
2022-10-31T16:43:02.933Z,2.23
2022-10-31T16:45:37.158Z,2.18
2022-10-31T16:48:15.755Z,2.18
2022-10-31T16:50:49.710Z,2.20
2022-10-31T16:53:24.311Z,2.18
2022-10-31T16:56:00.054Z,2.18
2022-10-31T16:58:35.552Z,2.19
2022-10-31T17:01:09.904Z,2.23
2022-10-31T17:03:43.697Z,2.25
2022-10-31T17:06:18.051Z,2.22
2022-10-31T17:08:51.738Z,2.22
2022-10-31T17:11:27.371Z,2.24
2022-10-31T17:14:01.500Z,2.26
2022-10-31T17:16:35.231Z,2.29
2022-10-31T17:19:11.487Z,2.26
2022-10-31T17:21:45.267Z,2.25
2022-10-31T17:24:18.991Z,2.25
2022-10-31T17:26:52.701Z,2.26
2022-10-31T17:29:26.235Z,2.28
2022-10-31T17:32:00.491Z,2.31
2022-10-31T17:34:34.001Z,2.30
2022-10-31T17:37:07.746Z,2.25
2022-10-31T17:39:41.060Z,2.25
2022-10-31T17:42:14.633Z,2.25
2022-10-31T17:44:48.605Z,2.27
2022-10-31T17:47:22.065Z,2.26
2022-10-31T17:49:55.596Z,2.26
2022-10-31T17:52:28.968Z,2.22
2022-10-31T17:55:02.381Z,2.24
2022-10-31T17:57:37.541Z,2.25
2022-10-31T18:00:14.982Z,2.24
2022-10-31T18:02:48.473Z,2.22
2022-10-31T18:05:21.913Z,2.29
2022-10-31T18:07:57.276Z,2.29
2022-10-31T18:10:30.813Z,2.33
2022-10-31T18:13:04.669Z,2.34
2022-10-31T18:15:41.527Z,2.26
2022-10-31T18:18:17.483Z,2.34
2022-10-31T18:20:55.176Z,2.32
2022-10-31T18:23:30.231Z,2.30
2022-10-31T18:26:04.822Z,2.29
2022-10-31T18:28:39.279Z,2.29
2022-10-31T18:31:12.925Z,2.25
2022-10-31T18:33:47.154Z,2.24
2022-10-31T18:36:20.533Z,2.24
2022-10-31T18:38:54.236Z,2.22
2022-10-31T18:41:27.944Z,2.21
2022-10-31T18:44:01.668Z,2.18
2022-10-31T18:46:35.773Z,2.17
2022-10-31T18:49:09.316Z,2.18
2022-10-31T18:51:43.169Z,2.18
2022-10-31T18:54:17.007Z,2.18
2022-10-31T18:56:50.628Z,2.12
2022-10-31T18:59:24.454Z,2.13
2022-10-31T19:01:58.209Z,2.11
2022-10-31T19:04:31.898Z,2.15
2022-10-31T19:07:05.276Z,2.10
2022-10-31T19:09:39.203Z,2.09
2022-10-31T19:12:12.728Z,2.10
2022-10-31T19:14:46.322Z,2.13
2022-10-31T19:17:19.832Z,2.11
2022-10-31T19:19:53.695Z,2.06
2022-10-31T19:22:27.475Z,2.03
2022-10-31T19:25:05.033Z,1.99
2022-10-31T19:27:36.541Z,2.00
2022-10-31T19:30:12.915Z,1.96
2022-10-31T19:32:46.479Z,1.92
2022-10-31T19:35:20.245Z,1.90
2022-10-31T19:37:53.483Z,1.86
2022-10-31T19:40:27.138Z,1.84
2022-10-31T19:43:01.392Z,1.80
2022-10-31T19:45:34.921Z,1.79
2022-10-31T19:48:08.798Z,1.78
2022-10-31T19:50:42.354Z,1.77
2022-10-31T19:53:15.714Z,1.78
2022-10-31T19:55:49.225Z,1.78
2022-10-31T19:58:22.391Z,1.79
2022-10-31T20:00:55.812Z,1.80
2022-10-31T20:03:29.431Z,1.79
2022-10-31T20:06:04.784Z,1.82
2022-10-31T20:11:20.302Z,1.91
2022-10-31T20:13:54.995Z,1.78
2022-10-31T20:16:29.626Z,1.76
2022-10-31T20:19:03.284Z,1.73
2022-10-31T20:21:38.851Z,1.75
2022-10-31T20:24:13.145Z,1.77
2022-10-31T20:26:46.571Z,1.77
2022-10-31T20:29:20.169Z,1.82
2022-10-31T20:31:53.421Z,1.81
2022-10-31T20:34:26.963Z,1.80
2022-10-31T20:37:00.211Z,1.78
2022-10-31T20:39:37.126Z,1.76
2022-10-31T20:42:10.765Z,1.74
2022-10-31T20:44:44.371Z,1.68
2022-10-31T20:47:20.628Z,1.68
2022-10-31T20:49:53.146Z,1.68
2022-10-31T20:52:26.741Z,1.64
2022-10-31T20:54:59.825Z,1.65
2022-10-31T20:57:33.625Z,1.65
2022-10-31T21:00:09.298Z,1.62
2022-10-31T21:02:43.734Z,1.57
2022-10-31T21:05:17.331Z,1.53
2022-10-31T21:10:24.220Z,1.52
2022-10-31T21:12:57.660Z,1.50
2022-10-31T21:15:31.019Z,1.47
2022-10-31T21:18:04.079Z,1.44
2022-10-31T21:20:38.744Z,1.42
2022-10-31T21:23:12.940Z,1.43
2022-10-31T21:25:46.533Z,1.49
2022-10-31T21:28:20.152Z,1.49
2022-10-31T21:30:53.399Z,1.43
2022-10-31T21:33:26.738Z,1.45
2022-10-31T21:36:00.203Z,1.38
2022-10-31T21:38:34.087Z,1.35
2022-10-31T21:41:09.894Z,1.38
2022-10-31T21:43:45.666Z,1.32
2022-10-31T21:46:21.206Z,1.26
2022-10-31T21:48:55.317Z,1.22
2022-10-31T21:51:30.942Z,1.25
2022-10-31T21:54:22.121Z,1.27
2022-10-31T21:56:55.839Z,1.23
2022-10-31T21:59:29.678Z,1.20
2022-10-31T22:02:03.093Z,1.20
2022-10-31T22:04:36.452Z,1.23
2022-10-31T22:07:10.103Z,1.28
2022-10-31T22:09:45.147Z,1.29
2022-10-31T22:12:18.541Z,1.27
2022-10-31T22:14:52.009Z,1.19
2022-10-31T22:17:26.040Z,1.20
2022-10-31T22:19:59.907Z,1.19
2022-10-31T22:22:33.444Z,1.17
2022-10-31T22:25:08.347Z,1.17
2022-10-31T22:27:42.643Z,1.20
2022-10-31T22:30:16.254Z,1.21
2022-10-31T22:32:49.969Z,1.17
2022-10-31T22:35:23.334Z,1.18
2022-10-31T22:37:56.817Z,1.16
2022-10-31T22:40:30.221Z,1.17
2022-10-31T22:43:04.267Z,1.16
2022-10-31T22:45:37.841Z,1.16
2022-10-31T22:48:11.215Z,1.19
2022-10-31T22:50:44.643Z,1.21
2022-10-31T22:53:18.061Z,1.12
2022-10-31T22:55:52.880Z,1.03
2022-10-31T22:58:26.261Z,1.04
2022-10-31T23:01:00.671Z,1.03
2022-10-31T23:03:34.063Z,1.05
2022-10-31T23:06:09.183Z,1.08
2022-10-31T23:08:42.966Z,1.09
2022-10-31T23:11:24.373Z,1.09
2022-10-31T23:14:12.633Z,1.03
2022-10-31T23:16:48.507Z,1.03
2022-10-31T23:19:23.871Z,1.03
2022-10-31T23:22:00.962Z,1.03
2022-10-31T23:24:37.878Z,1.04
2022-10-31T23:27:14.624Z,1.02
2022-10-31T23:29:49.479Z,0.97
2022-10-31T23:32:25.149Z,0.95
2022-10-31T23:34:59.392Z,1.01
2022-10-31T23:37:36.117Z,0.97
2022-10-31T23:40:11.616Z,0.95
2022-10-31T23:42:44.924Z,0.98
2022-10-31T23:45:18.917Z,0.99
2022-10-31T23:47:52.192Z,1.02
2022-10-31T23:50:25.744Z,1.01
2022-10-31T23:52:59.205Z,0.99
2022-10-31T23:55:32.616Z,1.04
2022-10-31T23:58:06.092Z,1.04
